createdAt,value
2018-08-17T00:00:14.406Z,1010.14
2018-08-17T00:01:14.430Z,1010.05
2018-08-17T00:02:14.454Z,1010.09
2018-08-17T00:03:14.480Z,1010.05
2018-08-17T00:04:14.504Z,1010.07
2018-08-17T00:05:14.574Z,1010.05
2018-08-17T00:06:14.553Z,1010.04
2018-08-17T00:08:14.603Z,1010.02
2018-08-17T00:09:14.627Z,1010.06
2018-08-17T00:10:14.652Z,1010.02
2018-08-17T00:11:14.676Z,1010.02
2018-08-17T00:12:14.704Z,1010.01
2018-08-17T00:13:14.728Z,1010
2018-08-17T00:14:14.749Z,1010.01
2018-08-17T00:15:14.775Z,1010
2018-08-17T00:16:14.799Z,1009.97
2018-08-17T00:17:14.825Z,1009.96
2018-08-17T00:18:14.848Z,1009.98
2018-08-17T00:19:14.872Z,1009.98
2018-08-17T00:20:14.896Z,1009.98
2018-08-17T00:21:14.921Z,1009.96
2018-08-17T00:22:14.946Z,1009.97
2018-08-17T00:24:14.994Z,1009.97
2018-08-17T00:25:15.018Z,1009.97
2018-08-17T00:26:15.048Z,1009.94
2018-08-17T00:27:15.068Z,1009.93
2018-08-17T00:28:15.093Z,1009.97
2018-08-17T00:29:15.122Z,1009.94
2018-08-17T00:30:15.143Z,1009.98
2018-08-17T00:31:15.166Z,1009.93
2018-08-17T00:32:15.191Z,1009.94
2018-08-17T00:33:15.215Z,1009.98
2018-08-17T00:34:15.241Z,1009.96
2018-08-17T00:35:15.264Z,1009.97
2018-08-17T00:36:15.290Z,1009.97
2018-08-17T00:37:15.314Z,1009.96
2018-08-17T00:38:15.336Z,1009.94
2018-08-17T00:40:15.387Z,1009.95
2018-08-17T00:41:15.413Z,1009.91
2018-08-17T00:42:15.435Z,1009.92
2018-08-17T00:43:15.460Z,1009.89
2018-08-17T00:44:15.483Z,1009.93
2018-08-17T00:45:15.512Z,1009.92
2018-08-17T00:46:15.532Z,1009.89
2018-08-17T00:47:15.555Z,1009.92
2018-08-17T00:48:15.583Z,1009.93
2018-08-17T00:49:15.605Z,1009.92
2018-08-17T00:50:15.629Z,1009.93
2018-08-17T00:51:15.656Z,1009.91
2018-08-17T00:52:15.679Z,1009.88
2018-08-17T00:53:15.703Z,1009.92
2018-08-17T00:55:15.753Z,1009.93
2018-08-17T00:56:15.776Z,1009.89
2018-08-17T00:57:15.801Z,1009.88
2018-08-17T00:58:15.826Z,1009.87
2018-08-17T00:59:15.849Z,1009.88
2018-08-17T01:00:15.874Z,1009.87
2018-08-17T01:01:15.898Z,1009.86
2018-08-17T01:02:15.924Z,1009.85
2018-08-17T01:03:15.947Z,1009.84
2018-08-17T01:04:15.971Z,1009.84
2018-08-17T01:05:15.997Z,1009.87
2018-08-17T01:06:16.020Z,1009.83
2018-08-17T01:07:16.043Z,1009.83
2018-08-17T01:08:16.068Z,1009.82
2018-08-17T01:09:16.093Z,1009.82
2018-08-17T01:10:16.116Z,1009.84
2018-08-17T01:11:16.141Z,1009.87
2018-08-17T01:12:16.172Z,1009.85
2018-08-17T01:13:16.190Z,1009.83
2018-08-17T01:14:16.213Z,1009.83
2018-08-17T01:15:16.238Z,1009.84
2018-08-17T01:16:16.264Z,1009.83
2018-08-17T01:17:16.289Z,1009.82
2018-08-17T01:18:16.310Z,1009.86
2018-08-17T01:19:16.334Z,1009.84
2018-08-17T01:20:16.360Z,1009.81
2018-08-17T01:21:16.384Z,1009.84
2018-08-17T01:22:16.419Z,1009.88
2018-08-17T01:23:16.432Z,1009.87
2018-08-17T01:24:16.455Z,1009.89
2018-08-17T01:25:16.481Z,1009.88
2018-08-17T01:27:16.529Z,1009.87
2018-08-17T01:28:16.559Z,1009.88
2018-08-17T01:29:16.579Z,1009.84
2018-08-17T01:30:16.600Z,1009.85
2018-08-17T01:31:16.625Z,1009.85
2018-08-17T01:32:16.650Z,1009.81
2018-08-17T01:33:16.680Z,1009.82
2018-08-17T01:34:16.698Z,1009.84
2018-08-17T01:35:16.723Z,1009.84
2018-08-17T01:36:16.745Z,1009.8
2018-08-17T01:37:16.770Z,1009.85
2018-08-17T01:38:16.795Z,1009.82
2018-08-17T01:39:16.819Z,1009.79
2018-08-17T01:40:16.845Z,1009.79
2018-08-17T01:41:16.867Z,1009.8
2018-08-17T01:43:16.916Z,1009.84
2018-08-17T01:44:16.939Z,1009.81
2018-08-17T01:45:16.967Z,1009.79
2018-08-17T01:46:16.988Z,1009.79
2018-08-17T01:47:17.014Z,1009.79
2018-08-17T01:48:17.036Z,1009.82
2018-08-17T01:49:17.061Z,1009.78
2018-08-17T01:50:17.085Z,1009.75
2018-08-17T01:51:17.107Z,1009.76
2018-08-17T01:52:17.132Z,1009.78
2018-08-17T01:53:17.157Z,1009.77
2018-08-17T01:54:17.181Z,1009.77
2018-08-17T01:55:17.204Z,1009.74
2018-08-17T01:56:17.229Z,1009.73
2018-08-17T01:57:17.252Z,1009.75
2018-08-17T01:59:17.301Z,1009.71
2018-08-17T02:00:17.326Z,1009.7
2018-08-17T02:01:17.348Z,1009.73
2018-08-17T02:02:17.373Z,1009.71
2018-08-17T02:03:17.398Z,1009.68
2018-08-17T02:04:17.434Z,1009.64
2018-08-17T02:05:17.447Z,1009.67
2018-08-17T02:06:17.474Z,1009.65
2018-08-17T02:07:17.493Z,1009.65
2018-08-17T02:08:17.517Z,1009.65
2018-08-17T02:09:17.541Z,1009.64
2018-08-17T02:10:17.566Z,1009.65
2018-08-17T02:11:17.590Z,1009.64
2018-08-17T02:12:17.615Z,1009.62
2018-08-17T02:13:17.637Z,1009.6
2018-08-17T02:15:17.686Z,1009.58
2018-08-17T02:16:17.710Z,1009.59
2018-08-17T02:17:17.734Z,1009.59
2018-08-17T02:18:17.758Z,1009.6
2018-08-17T02:19:17.783Z,1009.6
2018-08-17T02:20:17.804Z,1009.58
2018-08-17T02:21:17.833Z,1009.61
2018-08-17T02:22:17.853Z,1009.6
2018-08-17T02:23:17.879Z,1009.58
2018-08-17T02:24:17.928Z,1009.6
2018-08-17T02:25:17.926Z,1009.6
2018-08-17T02:26:17.950Z,1009.58
2018-08-17T02:27:17.975Z,1009.6
2018-08-17T02:28:17.999Z,1009.59
2018-08-17T02:30:18.049Z,1009.6
2018-08-17T02:31:18.071Z,1009.6
2018-08-17T02:32:18.098Z,1009.6
2018-08-17T02:33:18.124Z,1009.57
2018-08-17T02:34:18.148Z,1009.61
2018-08-17T02:35:18.167Z,1009.59
2018-08-17T02:36:18.194Z,1009.56
2018-08-17T02:37:18.219Z,1009.58
2018-08-17T02:38:18.238Z,1009.59
2018-08-17T02:39:18.263Z,1009.55
2018-08-17T02:40:18.286Z,1009.59
2018-08-17T02:41:18.312Z,1009.54
2018-08-17T02:42:18.335Z,1009.53
2018-08-17T02:43:18.358Z,1009.54
2018-08-17T02:44:18.382Z,1009.5
2018-08-17T02:45:18.407Z,1009.51
2018-08-17T02:46:18.433Z,1009.5
2018-08-17T02:47:18.555Z,1009.5
2018-08-17T02:48:18.482Z,1009.51
2018-08-17T02:49:18.502Z,1009.5
2018-08-17T02:50:18.526Z,1009.54
2018-08-17T02:51:18.551Z,1009.52
2018-08-17T02:52:18.575Z,1009.55
2018-08-17T02:53:18.599Z,1009.51
2018-08-17T02:54:18.628Z,1009.55
2018-08-17T02:55:18.646Z,1009.52
2018-08-17T02:56:18.676Z,1009.53
2018-08-17T02:57:18.693Z,1009.47
2018-08-17T02:58:18.718Z,1009.46
2018-08-17T02:59:18.742Z,1009.48
2018-08-17T03:00:18.864Z,1009.5
2018-08-17T03:02:18.813Z,1009.53
2018-08-17T03:03:18.839Z,1009.51
2018-08-17T03:04:18.860Z,1009.5
2018-08-17T03:05:18.885Z,1009.51
2018-08-17T03:06:18.908Z,1009.5
2018-08-17T03:07:18.931Z,1009.51
2018-08-17T03:08:18.956Z,1009.51
2018-08-17T03:09:18.979Z,1009.52
2018-08-17T03:10:19.004Z,1009.54
2018-08-17T03:11:19.026Z,1009.53
2018-08-17T03:12:19.053Z,1009.56
2018-08-17T03:13:19.076Z,1009.55
2018-08-17T03:14:19.099Z,1009.53
2018-08-17T03:15:19.124Z,1009.54
2018-08-17T03:16:19.150Z,1009.54
2018-08-17T03:18:19.195Z,1009.51
2018-08-17T03:19:19.221Z,1009.52
2018-08-17T03:20:19.244Z,1009.53
2018-08-17T03:21:19.267Z,1009.52
2018-08-17T03:22:19.290Z,1009.51
2018-08-17T03:23:19.316Z,1009.51
2018-08-17T03:24:19.337Z,1009.5
2018-08-17T03:25:19.361Z,1009.52
2018-08-17T03:26:19.385Z,1009.53
2018-08-17T03:27:19.410Z,1009.5
2018-08-17T03:28:19.433Z,1009.54
2018-08-17T03:29:19.456Z,1009.52
2018-08-17T03:30:19.488Z,1009.51
2018-08-17T03:31:19.505Z,1009.55
2018-08-17T03:32:19.528Z,1009.54
2018-08-17T03:34:19.574Z,1009.52
2018-08-17T03:35:19.599Z,1009.46
2018-08-17T03:36:19.625Z,1009.5
2018-08-17T03:37:19.678Z,1009.5
2018-08-17T03:38:19.670Z,1009.52
2018-08-17T03:39:19.695Z,1009.48
2018-08-17T03:40:19.717Z,1009.46
2018-08-17T03:41:19.743Z,1009.43
2018-08-17T03:42:19.763Z,1009.42
2018-08-17T03:43:19.793Z,1009.46
2018-08-17T03:44:19.812Z,1009.46
2018-08-17T03:45:19.834Z,1009.46
2018-08-17T03:46:19.860Z,1009.48
2018-08-17T03:47:19.883Z,1009.48
2018-08-17T03:48:19.907Z,1009.52
2018-08-17T03:50:19.954Z,1009.52
2018-08-17T03:51:19.978Z,1009.5
2018-08-17T03:52:20.012Z,1009.54
2018-08-17T03:53:20.024Z,1009.55
2018-08-17T03:54:20.049Z,1009.54
2018-08-17T03:55:20.104Z,1009.53
2018-08-17T03:56:20.095Z,1009.56
2018-08-17T03:57:20.123Z,1009.57
2018-08-17T03:58:20.144Z,1009.6
2018-08-17T03:59:20.167Z,1009.56
2018-08-17T04:00:20.190Z,1009.54
2018-08-17T04:01:20.214Z,1009.54
2018-08-17T04:02:20.239Z,1009.53
2018-08-17T04:03:20.262Z,1009.54
2018-08-17T04:05:20.317Z,1009.54
2018-08-17T04:06:20.333Z,1009.56
2018-08-17T04:07:20.357Z,1009.56
2018-08-17T04:08:20.381Z,1009.58
2018-08-17T04:09:20.405Z,1009.58
2018-08-17T04:10:20.428Z,1009.6
2018-08-17T04:11:20.450Z,1009.59
2018-08-17T04:12:20.476Z,1009.59
2018-08-17T04:13:20.506Z,1009.57
2018-08-17T04:14:20.523Z,1009.58
2018-08-17T04:15:20.566Z,1009.61
2018-08-17T04:16:20.571Z,1009.58
2018-08-17T04:17:20.596Z,1009.57
2018-08-17T04:18:20.618Z,1009.57
2018-08-17T04:19:20.642Z,1009.6
2018-08-17T04:20:20.664Z,1009.64
2018-08-17T04:21:20.690Z,1009.66
2018-08-17T04:22:20.712Z,1009.7
2018-08-17T04:23:20.736Z,1009.7
2018-08-17T04:24:20.759Z,1009.67
2018-08-17T04:25:20.782Z,1009.69
2018-08-17T04:26:20.807Z,1009.72
2018-08-17T04:27:20.829Z,1009.71
2018-08-17T04:28:20.854Z,1009.72
2018-08-17T04:29:20.878Z,1009.71
2018-08-17T04:30:20.902Z,1009.67
2018-08-17T04:31:20.926Z,1009.68
2018-08-17T04:32:20.950Z,1009.68
2018-08-17T04:33:20.973Z,1009.68
2018-08-17T04:34:20.998Z,1009.68
2018-08-17T04:35:21.046Z,1009.7
2018-08-17T04:37:21.068Z,1009.72
2018-08-17T04:38:21.091Z,1009.71
2018-08-17T04:39:21.114Z,1009.73
2018-08-17T04:40:21.139Z,1009.72
2018-08-17T04:41:21.163Z,1009.73
2018-08-17T04:42:21.186Z,1009.74
2018-08-17T04:43:21.209Z,1009.71
2018-08-17T04:44:21.234Z,1009.7
2018-08-17T04:45:21.257Z,1009.7
2018-08-17T04:46:21.281Z,1009.68
2018-08-17T04:47:21.305Z,1009.69
2018-08-17T04:48:21.329Z,1009.72
2018-08-17T04:49:21.428Z,1009.74
2018-08-17T04:50:21.376Z,1009.76
2018-08-17T04:51:21.401Z,1009.72
2018-08-17T04:53:21.452Z,1009.76
2018-08-17T04:54:21.472Z,1009.81
2018-08-17T04:55:21.496Z,1009.92
2018-08-17T04:56:21.521Z,1009.98
2018-08-17T04:57:21.547Z,1009.97
2018-08-17T04:58:21.569Z,1009.95
2018-08-17T04:59:21.594Z,1009.98
2018-08-17T05:00:21.624Z,1010.02
2018-08-17T05:01:21.643Z,1010.09
2018-08-17T05:02:21.667Z,1010.08
2018-08-17T05:03:21.737Z,1010.09
2018-08-17T05:04:21.719Z,1010.08
2018-08-17T05:05:21.743Z,1010.14
2018-08-17T05:06:21.770Z,1010.15
2018-08-17T05:07:21.798Z,1010.16
2018-08-17T05:09:21.848Z,1010.22
2018-08-17T05:10:21.874Z,1010.29
2018-08-17T05:11:21.900Z,1010.31
2018-08-17T05:12:21.927Z,1010.36
2018-08-17T05:13:21.954Z,1010.33
2018-08-17T05:14:21.982Z,1010.42
2018-08-17T05:15:22.015Z,1010.37
2018-08-17T05:16:22.037Z,1010.39
2018-08-17T05:17:22.064Z,1010.41
2018-08-17T05:18:22.100Z,1010.39
2018-08-17T05:19:22.121Z,1010.42
2018-08-17T05:20:22.149Z,1010.44
2018-08-17T05:21:22.189Z,1010.41
2018-08-17T05:22:22.207Z,1010.43
2018-08-17T05:23:22.309Z,1010.44
2018-08-17T05:25:22.297Z,1010.52
2018-08-17T05:26:22.324Z,1010.47
2018-08-17T05:27:22.353Z,1010.55
2018-08-17T05:28:22.382Z,1010.54
2018-08-17T05:29:22.414Z,1010.51
2018-08-17T05:30:22.442Z,1010.52
2018-08-17T05:31:22.473Z,1010.52
2018-08-17T05:32:22.503Z,1010.54
2018-08-17T05:33:22.534Z,1010.52
2018-08-17T05:34:22.563Z,1010.54
2018-08-17T05:35:22.594Z,1010.49
2018-08-17T05:36:22.631Z,1010.56
2018-08-17T05:37:22.656Z,1010.52
2018-08-17T05:38:22.687Z,1010.54
2018-08-17T05:40:22.750Z,1010.56
2018-08-17T05:41:22.781Z,1010.56
2018-08-17T05:42:22.812Z,1010.6
2018-08-17T05:43:22.844Z,1010.64
2018-08-17T05:44:22.876Z,1010.67
2018-08-17T05:45:22.908Z,1010.66
2018-08-17T05:46:22.940Z,1010.7
2018-08-17T05:47:22.972Z,1010.75
2018-08-17T05:48:23.004Z,1010.74
2018-08-17T05:49:23.036Z,1010.84
2018-08-17T05:50:23.068Z,1010.85
2018-08-17T05:51:23.102Z,1010.91
2018-08-17T05:52:23.133Z,1010.89
2018-08-17T05:53:23.166Z,1010.9
2018-08-17T05:54:23.199Z,1010.92
2018-08-17T05:55:23.232Z,1010.91
2018-08-17T05:56:23.265Z,1010.98
2018-08-17T05:57:23.296Z,1011.01
2018-08-17T05:58:23.332Z,1010.97
2018-08-17T05:59:23.362Z,1010.95
2018-08-17T06:00:23.397Z,1010.98
2018-08-17T06:01:23.430Z,1010.98
2018-08-17T06:02:23.465Z,1011
2018-08-17T06:03:23.495Z,1010.99
2018-08-17T06:04:23.531Z,1011.03
2018-08-17T06:05:23.563Z,1011.01
2018-08-17T06:06:23.598Z,1011.01
2018-08-17T06:07:23.631Z,1010.98
2018-08-17T06:08:23.664Z,1011.04
2018-08-17T06:09:23.700Z,1011.05
2018-08-17T06:10:23.736Z,1011.1
2018-08-17T06:12:23.802Z,1011.13
2018-08-17T06:13:23.836Z,1011.14
2018-08-17T06:14:23.868Z,1011.1
2018-08-17T06:15:23.903Z,1011.13
2018-08-17T06:16:23.936Z,1011.17
2018-08-17T06:17:23.973Z,1011.22
2018-08-17T06:18:24.005Z,1011.22
2018-08-17T06:19:24.103Z,1011.25
2018-08-17T06:20:24.075Z,1011.36
2018-08-17T06:21:24.108Z,1011.36
2018-08-17T06:22:24.147Z,1011.44
2018-08-17T06:23:24.179Z,1011.5
2018-08-17T06:24:24.214Z,1011.55
2018-08-17T06:25:24.252Z,1011.63
2018-08-17T06:26:24.284Z,1011.66
2018-08-17T06:28:24.455Z,1011.73
2018-08-17T06:29:24.388Z,1011.69
2018-08-17T06:30:24.424Z,1011.65
2018-08-17T06:31:24.464Z,1011.69
2018-08-17T06:32:24.492Z,1011.74
2018-08-17T06:33:24.528Z,1011.81
2018-08-17T06:34:24.564Z,1011.78
2018-08-17T06:35:24.601Z,1011.78
2018-08-17T06:36:24.634Z,1011.82
2018-08-17T06:37:24.774Z,1011.75
2018-08-17T06:38:24.710Z,1011.76
2018-08-17T06:39:24.742Z,1011.77
2018-08-17T06:40:24.776Z,1011.84
2018-08-17T06:41:24.814Z,1011.69
2018-08-17T06:42:24.849Z,1011.72
2018-08-17T06:44:24.919Z,1011.91
2018-08-17T06:45:24.957Z,1011.78
2018-08-17T06:46:24.992Z,1011.79
2018-08-17T06:47:25.026Z,1011.81
2018-08-17T06:48:25.062Z,1011.8
2018-08-17T06:49:25.112Z,1011.73
2018-08-17T06:50:25.135Z,1011.73
2018-08-17T06:51:25.168Z,1011.74
2018-08-17T06:52:25.207Z,1011.73
2018-08-17T06:53:25.248Z,1011.63
2018-08-17T06:54:25.278Z,1011.54
2018-08-17T06:55:25.316Z,1011.61
2018-08-17T06:56:25.351Z,1011.66
2018-08-17T06:57:25.387Z,1011.58
2018-08-17T06:58:25.422Z,1011.53
2018-08-17T07:00:25.506Z,1011.48
2018-08-17T07:01:25.532Z,1011.44
2018-08-17T07:02:25.614Z,1011.44
2018-08-17T07:03:25.606Z,1011.39
2018-08-17T07:04:25.641Z,1011.37
2018-08-17T07:05:25.678Z,1011.36
2018-08-17T07:06:25.716Z,1011.37
2018-08-17T07:07:25.752Z,1011.31
2018-08-17T07:08:25.790Z,1011.28
2018-08-17T07:09:25.922Z,1011.16
2018-08-17T07:10:25.865Z,1010.98
2018-08-17T07:11:25.910Z,1010.79
2018-08-17T07:12:25.939Z,1010.77
2018-08-17T07:13:25.976Z,1010.79
2018-08-17T07:15:26.050Z,1010.73
2018-08-17T07:16:26.087Z,1010.67
2018-08-17T07:17:26.125Z,1010.69
2018-08-17T07:18:26.163Z,1010.77
2018-08-17T07:19:26.200Z,1010.8
2018-08-17T07:20:26.236Z,1010.83
2018-08-17T07:21:26.309Z,1010.82
2018-08-17T07:22:26.311Z,1010.84
2018-08-17T07:23:26.348Z,1010.81
2018-08-17T07:24:26.386Z,1010.81
2018-08-17T07:25:26.423Z,1010.8
2018-08-17T07:26:26.461Z,1010.8
2018-08-17T07:27:26.497Z,1010.75
2018-08-17T07:28:26.534Z,1010.7
2018-08-17T07:29:26.572Z,1010.64
2018-08-17T07:30:26.610Z,1010.71
2018-08-17T07:31:26.645Z,1010.71
2018-08-17T07:32:26.684Z,1010.77
2018-08-17T07:33:26.721Z,1010.84
2018-08-17T07:34:26.758Z,1010.94
2018-08-17T07:35:26.795Z,1011.03
2018-08-17T07:36:26.833Z,1011.1
2018-08-17T07:37:26.869Z,1011.06
2018-08-17T07:38:26.905Z,1010.92
2018-08-17T07:39:26.942Z,1011.01
2018-08-17T07:40:26.981Z,1011.04
2018-08-17T07:41:27.021Z,1011.04
2018-08-17T07:42:27.058Z,1011.08
2018-08-17T07:43:27.095Z,1011.02
2018-08-17T07:44:27.129Z,1011.01
2018-08-17T07:45:27.168Z,1011
2018-08-17T07:47:27.240Z,1010.99
2018-08-17T07:48:27.278Z,1010.98
2018-08-17T07:49:27.315Z,1010.94
2018-08-17T07:50:27.352Z,1010.96
2018-08-17T07:51:27.389Z,1010.93
2018-08-17T07:52:27.427Z,1010.92
2018-08-17T07:53:27.463Z,1010.87
2018-08-17T07:54:27.501Z,1010.86
2018-08-17T07:55:27.538Z,1010.83
2018-08-17T07:56:27.577Z,1010.81
2018-08-17T07:57:27.612Z,1010.7
2018-08-17T07:58:27.650Z,1010.76
2018-08-17T07:59:27.686Z,1010.74
2018-08-17T08:00:27.721Z,1010.74
2018-08-17T08:01:27.760Z,1010.74
2018-08-17T08:03:27.834Z,1010.72
2018-08-17T08:04:27.875Z,1010.75
2018-08-17T08:05:27.913Z,1010.71
2018-08-17T08:06:27.943Z,1010.69
2018-08-17T08:07:27.983Z,1010.72
2018-08-17T08:08:28.019Z,1010.73
2018-08-17T08:09:28.055Z,1010.71
2018-08-17T08:10:28.093Z,1010.74
2018-08-17T08:11:28.132Z,1010.71
2018-08-17T08:12:28.166Z,1010.69
2018-08-17T08:13:28.208Z,1010.68
2018-08-17T08:14:28.242Z,1010.65
2018-08-17T08:15:28.279Z,1010.67
2018-08-17T08:16:28.313Z,1010.65
2018-08-17T08:17:28.351Z,1010.62
2018-08-17T08:19:28.426Z,1010.72
2018-08-17T08:20:28.553Z,1010.76
2018-08-17T08:21:28.501Z,1010.79
2018-08-17T08:22:28.537Z,1010.82
2018-08-17T08:23:28.575Z,1010.83
2018-08-17T08:24:28.611Z,1010.86
2018-08-17T08:25:28.651Z,1010.94
2018-08-17T08:26:28.693Z,1010.91
2018-08-17T08:27:28.723Z,1010.95
2018-08-17T08:28:28.760Z,1010.94
2018-08-17T08:29:28.796Z,1010.97
2018-08-17T08:30:28.834Z,1010.95
2018-08-17T08:31:28.875Z,1010.95
2018-08-17T08:32:28.984Z,1010.9
2018-08-17T08:33:28.944Z,1010.9
2018-08-17T08:35:29.018Z,1010.91
2018-08-17T08:36:29.055Z,1010.87
2018-08-17T08:37:29.092Z,1010.89
2018-08-17T08:38:29.128Z,1010.87
2018-08-17T08:39:29.165Z,1010.91
2018-08-17T08:40:29.201Z,1010.79
2018-08-17T08:41:29.238Z,1010.64
2018-08-17T08:42:29.275Z,1010.63
2018-08-17T08:43:29.312Z,1010.63
2018-08-17T08:44:29.352Z,1010.62
2018-08-17T08:45:29.446Z,1010.62
2018-08-17T08:46:29.422Z,1010.63
2018-08-17T08:47:29.458Z,1010.61
2018-08-17T08:48:29.495Z,1010.62
2018-08-17T08:50:29.572Z,1010.58
2018-08-17T08:51:29.606Z,1010.57
2018-08-17T08:52:29.641Z,1010.58
2018-08-17T08:53:29.680Z,1010.57
2018-08-17T08:54:29.717Z,1010.52
2018-08-17T08:55:29.752Z,1010.54
2018-08-17T08:56:29.789Z,1010.52
2018-08-17T08:57:29.830Z,1010.52
2018-08-17T08:58:29.871Z,1010.52
2018-08-17T08:59:29.900Z,1010.51
2018-08-17T09:00:29.936Z,1010.51
2018-08-17T09:01:29.974Z,1010.5
2018-08-17T09:02:30.010Z,1010.5
2018-08-17T09:03:30.049Z,1010.53
2018-08-17T09:04:30.083Z,1010.48
2018-08-17T09:05:30.120Z,1010.45
2018-08-17T09:06:30.155Z,1010.55
2018-08-17T09:07:30.192Z,1010.5
2018-08-17T09:08:30.229Z,1010.46
2018-08-17T09:09:30.264Z,1010.42
2018-08-17T09:10:30.301Z,1010.44
2018-08-17T09:11:30.338Z,1010.43
2018-08-17T09:12:30.374Z,1010.41
2018-08-17T09:13:30.515Z,1010.43
2018-08-17T09:14:30.447Z,1010.37
2018-08-17T09:15:30.483Z,1010.38
2018-08-17T09:16:30.520Z,1010.4
2018-08-17T09:17:30.555Z,1010.37
2018-08-17T09:18:30.591Z,1010.38
2018-08-17T09:19:30.631Z,1010.4
2018-08-17T09:20:30.703Z,1010.37
2018-08-17T09:22:30.737Z,1010.37
2018-08-17T09:23:30.773Z,1010.39
2018-08-17T09:24:30.809Z,1010.35
2018-08-17T09:25:30.845Z,1010.37
2018-08-17T09:26:30.881Z,1010.35
2018-08-17T09:27:30.916Z,1010.33
2018-08-17T09:28:30.953Z,1010.32
2018-08-17T09:29:30.989Z,1010.35
2018-08-17T09:30:31.030Z,1010.33
2018-08-17T09:31:31.061Z,1010.33
2018-08-17T09:32:31.096Z,1010.31
2018-08-17T09:33:31.134Z,1010.31
2018-08-17T09:34:31.170Z,1010.32
2018-08-17T09:35:31.206Z,1010.29
2018-08-17T09:36:31.243Z,1010.28
2018-08-17T09:38:31.315Z,1010.29
2018-08-17T09:39:31.380Z,1010.31
2018-08-17T09:40:31.390Z,1010.3
2018-08-17T09:41:31.431Z,1010.28
2018-08-17T09:42:31.459Z,1010.25
2018-08-17T09:43:31.499Z,1010.26
2018-08-17T09:44:31.532Z,1010.21
2018-08-17T09:45:31.568Z,1010.25
2018-08-17T09:46:31.603Z,1010.29
2018-08-17T09:47:31.640Z,1010.3
2018-08-17T09:48:31.676Z,1010.29
2018-08-17T09:49:31.713Z,1010.26
2018-08-17T09:50:31.746Z,1010.26
2018-08-17T09:51:31.784Z,1010.26
2018-08-17T09:52:31.820Z,1010.23
2018-08-17T09:54:31.892Z,1010.19
2018-08-17T09:55:31.928Z,1010.23
2018-08-17T09:56:31.965Z,1010.19
2018-08-17T09:57:32.017Z,1010.14
2018-08-17T09:58:32.037Z,1010.15
2018-08-17T09:59:32.071Z,1010.14
2018-08-17T10:00:32.109Z,1010.09
2018-08-17T10:01:32.143Z,1010.08
2018-08-17T10:02:32.179Z,1010.06
2018-08-17T10:03:32.215Z,1010.02
2018-08-17T10:04:32.249Z,1010.05
2018-08-17T10:05:32.286Z,1010.03
2018-08-17T10:06:32.320Z,1010.04
2018-08-17T10:07:32.358Z,1010.02
2018-08-17T10:08:32.392Z,1010
2018-08-17T10:10:32.464Z,1009.97
2018-08-17T10:11:32.499Z,1010.01
2018-08-17T10:12:32.533Z,1009.97
2018-08-17T10:13:32.569Z,1009.99
2018-08-17T10:14:32.609Z,1010.02
2018-08-17T10:15:32.640Z,1009.99
2018-08-17T10:16:32.675Z,1009.99
2018-08-17T10:17:32.710Z,1009.95
2018-08-17T10:18:32.746Z,1009.92
2018-08-17T10:19:32.781Z,1009.93
2018-08-17T10:20:32.816Z,1009.85
2018-08-17T10:21:33.090Z,1009.9
2018-08-17T10:22:32.888Z,1009.88
2018-08-17T10:23:32.923Z,1009.85
2018-08-17T10:25:32.995Z,1009.91
2018-08-17T10:26:33.028Z,1009.86
2018-08-17T10:27:33.065Z,1009.87
2018-08-17T10:28:33.098Z,1009.88
2018-08-17T10:29:33.133Z,1009.87
2018-08-17T10:30:33.169Z,1009.88
2018-08-17T10:31:33.206Z,1009.89
2018-08-17T10:32:33.237Z,1009.85
2018-08-17T10:33:33.270Z,1009.93
2018-08-17T10:34:33.310Z,1009.87
2018-08-17T10:35:33.341Z,1009.87
2018-08-17T10:36:33.477Z,1009.86
2018-08-17T10:37:33.411Z,1009.89
2018-08-17T10:38:33.446Z,1009.89
2018-08-17T10:39:33.482Z,1009.88
2018-08-17T10:40:33.518Z,1009.9
2018-08-17T10:41:33.549Z,1009.83
2018-08-17T10:42:33.584Z,1009.82
2018-08-17T10:43:33.618Z,1009.81
2018-08-17T10:44:33.653Z,1009.8
2018-08-17T10:45:33.688Z,1009.76
2018-08-17T10:46:33.722Z,1009.77
2018-08-17T10:47:33.756Z,1009.79
2018-08-17T10:48:33.810Z,1009.8
2018-08-17T10:49:33.834Z,1009.79
2018-08-17T10:50:33.858Z,1009.78
2018-08-17T10:51:33.893Z,1009.76
2018-08-17T10:52:33.925Z,1009.77
2018-08-17T10:53:33.960Z,1009.78
2018-08-17T10:54:33.993Z,1009.75
2018-08-17T10:55:34.100Z,1009.73
2018-08-17T10:57:34.275Z,1009.8
2018-08-17T10:58:34.131Z,1009.73
2018-08-17T10:59:34.160Z,1009.73
2018-08-17T11:00:34.198Z,1009.74
2018-08-17T11:01:34.230Z,1009.73
2018-08-17T11:02:34.265Z,1009.69
2018-08-17T11:03:34.296Z,1009.75
2018-08-17T11:04:34.331Z,1009.77
2018-08-17T11:05:34.364Z,1009.77
2018-08-17T11:06:34.398Z,1009.72
2018-08-17T11:07:34.432Z,1009.75
2018-08-17T11:08:34.465Z,1009.73
2018-08-17T11:09:34.498Z,1009.67
2018-08-17T11:10:34.534Z,1009.68
2018-08-17T11:11:34.565Z,1009.71
2018-08-17T11:13:34.664Z,1009.72
2018-08-17T11:14:34.665Z,1009.71
2018-08-17T11:15:34.699Z,1009.71
2018-08-17T11:16:34.732Z,1009.71
2018-08-17T11:17:34.766Z,1009.69
2018-08-17T11:18:34.799Z,1009.68
2018-08-17T11:19:34.832Z,1009.68
2018-08-17T11:20:34.865Z,1009.65
2018-08-17T11:21:34.898Z,1009.64
2018-08-17T11:22:34.934Z,1009.63
2018-08-17T11:23:34.968Z,1009.64
2018-08-17T11:24:34.999Z,1009.59
2018-08-17T11:25:35.031Z,1009.59
2018-08-17T11:26:35.066Z,1009.58
2018-08-17T11:27:35.097Z,1009.61
2018-08-17T11:29:35.167Z,1009.62
2018-08-17T11:30:35.197Z,1009.6
2018-08-17T11:31:35.230Z,1009.59
2018-08-17T11:32:35.263Z,1009.64
2018-08-17T11:33:35.296Z,1009.63
2018-08-17T11:34:35.329Z,1009.65
2018-08-17T11:35:35.361Z,1009.64
2018-08-17T11:36:35.393Z,1009.67
2018-08-17T11:37:35.428Z,1009.63
2018-08-17T11:38:35.466Z,1009.62
2018-08-17T11:39:35.492Z,1009.62
2018-08-17T11:40:35.527Z,1009.64
2018-08-17T11:41:35.671Z,1009.61
2018-08-17T11:42:35.592Z,1009.62
2018-08-17T11:43:35.624Z,1009.56
2018-08-17T11:45:35.689Z,1009.56
2018-08-17T11:46:35.723Z,1009.56
2018-08-17T11:47:35.757Z,1009.51
2018-08-17T11:48:35.801Z,1009.54
2018-08-17T11:49:35.821Z,1009.54
2018-08-17T11:50:35.852Z,1009.53
2018-08-17T11:51:35.884Z,1009.53
2018-08-17T11:52:35.918Z,1009.54
2018-08-17T11:53:36.121Z,1009.52
2018-08-17T11:54:35.983Z,1009.56
2018-08-17T11:55:36.026Z,1009.5
2018-08-17T11:56:36.049Z,1009.5
2018-08-17T11:57:36.081Z,1009.49
2018-08-17T11:58:36.113Z,1009.48
2018-08-17T12:00:36.186Z,1009.49
2018-08-17T12:01:36.212Z,1009.47
2018-08-17T12:02:36.244Z,1009.51
2018-08-17T12:03:36.278Z,1009.5
2018-08-17T12:04:36.310Z,1009.49
2018-08-17T12:05:36.341Z,1009.48
2018-08-17T12:06:36.375Z,1009.47
2018-08-17T12:07:36.409Z,1009.45
2018-08-17T12:08:36.490Z,1009.46
2018-08-17T12:09:36.473Z,1009.43
2018-08-17T12:10:36.506Z,1009.48
2018-08-17T12:11:36.537Z,1009.44
2018-08-17T12:12:36.569Z,1009.44
2018-08-17T12:13:36.602Z,1009.41
2018-08-17T12:14:36.637Z,1009.44
2018-08-17T12:15:36.669Z,1009.45
2018-08-17T12:16:36.700Z,1009.44
2018-08-17T12:17:36.733Z,1009.48
2018-08-17T12:18:36.780Z,1009.45
2018-08-17T12:19:36.799Z,1009.51
2018-08-17T12:20:36.830Z,1009.48
2018-08-17T12:21:36.863Z,1009.45
2018-08-17T12:22:36.944Z,1009.46
2018-08-17T12:23:36.928Z,1009.5
2018-08-17T12:24:37.020Z,1009.42
2018-08-17T12:25:36.993Z,1009.45
2018-08-17T12:26:37.026Z,1009.44
2018-08-17T12:27:37.057Z,1009.43
2018-08-17T12:28:37.092Z,1009.45
2018-08-17T12:29:37.123Z,1009.42
2018-08-17T12:30:37.155Z,1009.43
2018-08-17T12:32:37.220Z,1009.41
2018-08-17T12:33:37.255Z,1009.42
2018-08-17T12:34:37.285Z,1009.39
2018-08-17T12:35:37.317Z,1009.39
2018-08-17T12:36:37.348Z,1009.38
2018-08-17T12:37:37.381Z,1009.37
2018-08-17T12:38:37.413Z,1009.35
2018-08-17T12:39:37.444Z,1009.35
2018-08-17T12:40:37.477Z,1009.32
2018-08-17T12:41:37.509Z,1009.29
2018-08-17T12:42:37.541Z,1009.29
2018-08-17T12:43:37.574Z,1009.29
2018-08-17T12:44:37.606Z,1009.32
2018-08-17T12:45:37.637Z,1009.3
2018-08-17T12:46:37.768Z,1009.32
2018-08-17T12:48:37.734Z,1009.32
2018-08-17T12:49:37.765Z,1009.31